createdAt,value
2024-02-15T00:00:44.508Z,58.95
2024-02-15T00:03:14.534Z,58.81
2024-02-15T00:05:41.372Z,58.75
2024-02-15T00:08:07.865Z,59.38
2024-02-15T00:10:35.569Z,59.01
2024-02-15T00:13:02.140Z,59.62
2024-02-15T00:15:28.659Z,59.80
2024-02-15T00:17:55.303Z,59.41
2024-02-15T00:20:21.946Z,59.34
2024-02-15T00:22:49.217Z,60.28
2024-02-15T00:25:15.797Z,59.45
2024-02-15T00:27:42.393Z,59.89
2024-02-15T00:30:10.137Z,60.28
2024-02-15T00:32:38.087Z,59.91
2024-02-15T00:35:10.869Z,60.11
2024-02-15T00:37:38.271Z,59.90
2024-02-15T00:40:05.338Z,59.41
2024-02-15T00:42:34.691Z,59.38
2024-02-15T00:45:01.333Z,59.67
2024-02-15T00:47:29.798Z,60.59
2024-02-15T00:49:56.575Z,60.49
2024-02-15T00:52:24.676Z,60.18
2024-02-15T00:54:51.210Z,60.14
2024-02-15T00:57:17.735Z,60.63
2024-02-15T00:59:45.278Z,60.70
2024-02-15T01:02:11.978Z,60.38
2024-02-15T01:04:38.509Z,61.17
2024-02-15T01:07:05.165Z,61.77
2024-02-15T01:09:31.751Z,61.13
2024-02-15T01:11:58.348Z,61.80
2024-02-15T01:14:24.968Z,61.91
2024-02-15T01:16:51.481Z,62.26
2024-02-15T01:19:18.053Z,61.51
2024-02-15T01:21:45.205Z,61.80
2024-02-15T01:24:11.799Z,61.38
2024-02-15T01:26:38.432Z,61.49
2024-02-15T01:29:05.047Z,62.05
2024-02-15T01:31:31.676Z,61.51
2024-02-15T01:33:58.727Z,62.07
2024-02-15T01:36:25.947Z,61.65
2024-02-15T01:38:52.538Z,62.06
2024-02-15T01:41:19.137Z,62.29
2024-02-15T01:43:49.200Z,62.57
2024-02-15T01:46:16.750Z,62.16
2024-02-15T01:48:44.580Z,62.06
2024-02-15T01:51:14.145Z,62.34
2024-02-15T01:53:43.136Z,62.12
2024-02-15T01:56:13.088Z,62.36
2024-02-15T01:58:42.222Z,62.07
2024-02-15T02:01:08.813Z,63.59
2024-02-15T02:03:36.395Z,62.14
2024-02-15T02:06:04.215Z,62.84
2024-02-15T02:08:30.908Z,62.54
2024-02-15T02:10:58.210Z,62.08
2024-02-15T02:13:24.944Z,61.35
2024-02-15T02:15:54.214Z,61.85
2024-02-15T02:18:21.139Z,61.23
2024-02-15T02:20:47.835Z,61.20
2024-02-15T02:23:21.715Z,61.17
2024-02-15T02:25:50.352Z,61.89
2024-02-15T02:28:17.941Z,62.90
2024-02-15T02:30:46.867Z,62.90
2024-02-15T02:33:20.882Z,62.07
2024-02-15T02:35:49.516Z,61.91
2024-02-15T02:38:16.608Z,61.29
2024-02-15T02:40:43.701Z,61.85
2024-02-15T02:43:10.978Z,61.60
2024-02-15T02:45:37.771Z,62.24
2024-02-15T02:48:04.884Z,62.47
2024-02-15T02:50:31.557Z,62.14
2024-02-15T02:52:58.123Z,63.09
2024-02-15T02:55:24.700Z,63.57
2024-02-15T02:57:51.279Z,62.90
2024-02-15T03:00:18.687Z,62.80
2024-02-15T03:02:47.435Z,63.21
2024-02-15T03:05:17.261Z,63.93
2024-02-15T03:07:43.925Z,64.00
2024-02-15T03:10:11.529Z,64.63
2024-02-15T03:12:41.115Z,65.28
2024-02-15T03:15:12.446Z,65.40
2024-02-15T03:17:43.135Z,65.00
2024-02-15T03:20:21.709Z,65.04
2024-02-15T03:22:55.904Z,65.06
2024-02-15T03:25:25.282Z,65.37
2024-02-15T03:28:04.521Z,65.70
2024-02-15T03:30:32.788Z,65.31
2024-02-15T03:32:59.843Z,65.01
2024-02-15T03:35:30.086Z,65.47
2024-02-15T03:37:57.585Z,66.19
2024-02-15T03:40:27.635Z,65.50
2024-02-15T03:42:55.113Z,66.24
2024-02-15T03:45:22.210Z,65.70
2024-02-15T03:47:51.132Z,64.80
2024-02-15T03:50:20.018Z,65.22
2024-02-15T03:52:47.201Z,65.18
2024-02-15T03:55:14.227Z,64.23
2024-02-15T03:57:48.210Z,64.54
2024-02-15T04:00:22.613Z,64.84
2024-02-15T04:02:50.395Z,65.92
2024-02-15T04:05:19.364Z,65.06
2024-02-15T04:07:46.194Z,65.08
2024-02-15T04:10:13.612Z,64.45
2024-02-15T04:12:43.205Z,65.26
2024-02-15T04:15:14.189Z,65.36
2024-02-15T04:17:42.471Z,64.73
2024-02-15T04:20:10.494Z,66.21
2024-02-15T04:22:39.680Z,65.50
2024-02-15T04:25:07.373Z,64.43
2024-02-15T04:27:34.150Z,64.43
2024-02-15T04:30:00.884Z,64.02
2024-02-15T04:32:27.397Z,64.56
2024-02-15T04:34:53.974Z,64.40
2024-02-15T04:37:21.710Z,63.97
2024-02-15T04:39:48.906Z,62.45
2024-02-15T04:42:16.887Z,62.19
2024-02-15T04:44:43.497Z,62.23
2024-02-15T04:47:10.037Z,62.57
2024-02-15T04:49:39.304Z,62.92
2024-02-15T04:52:07.776Z,62.73
2024-02-15T04:54:34.553Z,62.59
2024-02-15T04:57:02.302Z,62.04
2024-02-15T04:59:30.362Z,62.45
2024-02-15T05:02:00.147Z,61.79
2024-02-15T05:04:26.922Z,62.33
2024-02-15T05:06:54.547Z,61.90
2024-02-15T05:09:21.271Z,63.56
2024-02-15T05:11:48.481Z,62.20
2024-02-15T05:14:20.388Z,61.87
2024-02-15T05:16:49.041Z,62.16
2024-02-15T05:19:18.841Z,63.44
2024-02-15T05:21:47.102Z,64.89
2024-02-15T05:24:17.807Z,65.05
2024-02-15T05:26:49.928Z,63.98
2024-02-15T05:29:16.790Z,63.26
2024-02-15T05:31:43.419Z,63.21
2024-02-15T05:34:13.486Z,61.34
2024-02-15T05:36:40.745Z,61.81
2024-02-15T05:39:08.613Z,62.57
2024-02-15T05:41:35.706Z,62.53
2024-02-15T05:44:05.771Z,62.12
2024-02-15T05:46:32.457Z,60.85
2024-02-15T05:49:00.430Z,61.14
2024-02-15T05:51:27.155Z,61.50
2024-02-15T05:53:59.484Z,60.00
2024-02-15T05:56:27.105Z,60.74
2024-02-15T05:58:53.849Z,61.60
2024-02-15T06:01:20.410Z,61.28
2024-02-15T06:03:49.469Z,61.49
2024-02-15T06:06:16.275Z,61.82
2024-02-15T06:08:43.039Z,60.69
2024-02-15T06:11:11.677Z,60.53
2024-02-15T06:13:38.369Z,61.05
2024-02-15T06:16:10.312Z,62.54
2024-02-15T06:18:37.199Z,61.16
2024-02-15T06:21:04.562Z,61.70
2024-02-15T06:23:32.317Z,60.38
2024-02-15T06:25:59.468Z,60.49
2024-02-15T06:28:45.024Z,60.94
2024-02-15T06:31:31.612Z,61.96
2024-02-15T06:34:16.948Z,61.33
2024-02-15T06:48:35.575Z,60.53
2024-02-15T06:51:02.436Z,60.17
2024-02-15T06:53:29.086Z,59.99
2024-02-15T06:55:55.671Z,60.20
2024-02-15T06:58:22.310Z,59.70
2024-02-15T07:00:51.398Z,59.81
2024-02-15T07:03:18.192Z,59.76
2024-02-15T07:05:45.362Z,59.61
2024-02-15T07:08:13.899Z,59.59
2024-02-15T07:10:40.956Z,59.89
2024-02-15T07:13:07.769Z,59.66
2024-02-15T07:15:39.980Z,60.01
2024-02-15T07:18:07.722Z,60.31
2024-02-15T07:20:34.953Z,60.45
2024-02-15T07:23:28.778Z,60.41
2024-02-15T07:38:37.694Z,59.99
2024-02-15T07:41:04.604Z,60.44
2024-02-15T07:43:31.234Z,60.33
2024-02-15T07:45:57.834Z,59.99
2024-02-15T07:48:25.104Z,59.42
2024-02-15T07:50:51.715Z,59.11
2024-02-15T07:53:18.232Z,59.62
2024-02-15T07:55:45.244Z,59.61
2024-02-15T07:58:12.143Z,59.75
2024-02-15T08:00:39.504Z,59.14
2024-02-15T08:03:06.270Z,59.32
2024-02-15T08:05:32.934Z,59.08
2024-02-15T08:47:16.047Z,58.54
2024-02-15T08:49:42.802Z,57.98
2024-02-15T08:52:09.569Z,57.53
2024-02-15T08:54:39.673Z,57.04
2024-02-15T08:57:07.618Z,57.17
2024-02-15T08:59:34.373Z,56.53
2024-02-15T09:02:01.655Z,56.26
2024-02-15T09:04:28.741Z,56.30
2024-02-15T09:09:45.832Z,55.72
2024-02-15T09:26:58.138Z,55.34
2024-02-15T09:29:25.595Z,55.04
2024-02-15T09:31:53.969Z,54.92
2024-02-15T09:34:20.753Z,54.72
2024-02-15T09:36:47.338Z,54.60
2024-02-15T09:39:15.273Z,54.40
2024-02-15T09:41:47.605Z,54.53
2024-02-15T09:44:15.967Z,54.29
2024-02-15T09:46:48.029Z,54.01
2024-02-15T09:49:15.700Z,54.04
2024-02-15T09:51:43.779Z,53.44
2024-02-15T09:54:11.967Z,53.53
2024-02-15T09:56:42.787Z,53.63
2024-02-15T09:59:09.465Z,52.35
2024-02-15T10:01:38.250Z,54.04
2024-02-15T10:04:08.034Z,52.80
2024-02-15T10:06:34.938Z,53.11
2024-02-15T10:09:28.833Z,51.92
2024-02-15T10:12:01.676Z,51.84
2024-02-15T10:14:31.949Z,50.98
2024-02-15T10:17:07.260Z,50.43
2024-02-15T10:19:36.203Z,50.07
2024-02-15T10:22:10.228Z,50.55
2024-02-15T10:24:38.156Z,49.94
2024-02-15T10:27:07.121Z,49.16
2024-02-15T10:29:35.298Z,48.97
2024-02-15T10:32:03.478Z,48.92
2024-02-15T10:34:31.880Z,49.29
2024-02-15T10:37:15.365Z,48.82
2024-02-15T10:39:42.172Z,48.42
2024-02-15T10:42:12.351Z,47.79
2024-02-15T10:44:42.214Z,48.24
2024-02-15T10:47:10.257Z,47.90
2024-02-15T10:49:37.464Z,47.01
2024-02-15T10:52:05.736Z,46.09
2024-02-15T10:54:38.307Z,46.12
2024-02-15T10:57:06.737Z,46.38
2024-02-15T10:59:39.580Z,46.86
2024-02-15T11:02:24.997Z,46.97
2024-02-15T11:04:57.759Z,46.39
2024-02-15T11:07:30.864Z,46.92
2024-02-15T11:10:00.302Z,46.62
2024-02-15T11:12:27.864Z,46.62
2024-02-15T11:14:55.466Z,46.73
2024-02-15T11:17:41.042Z,46.43
2024-02-15T11:20:10.965Z,46.92
2024-02-15T11:22:38.348Z,46.46
2024-02-15T11:25:10.054Z,46.92
2024-02-15T11:27:48.916Z,46.49
2024-02-15T11:30:33.142Z,46.06
2024-02-15T11:33:00.860Z,45.29
2024-02-15T11:35:30.826Z,45.08
2024-02-15T11:38:05.876Z,44.88
2024-02-15T11:41:01.679Z,45.00
2024-02-15T11:43:46.122Z,45.29
2024-02-15T11:46:17.550Z,44.66
2024-02-15T11:48:44.600Z,44.73
2024-02-15T11:51:12.925Z,44.52
2024-02-15T11:53:40.856Z,45.15
2024-02-15T11:56:10.198Z,44.44
2024-02-15T11:58:53.749Z,44.91
2024-02-15T12:01:39.132Z,44.34
2024-02-15T12:04:24.455Z,44.51
2024-02-15T12:07:16.895Z,44.75
2024-02-15T12:10:05.260Z,45.14
2024-02-15T12:12:51.967Z,44.80
2024-02-15T12:15:37.273Z,44.60
2024-02-15T12:18:37.797Z,44.27
2024-02-15T12:21:06.410Z,44.84
2024-02-15T12:23:34.937Z,44.38
2024-02-15T12:26:04.780Z,43.21
2024-02-15T12:28:32.409Z,42.54
2024-02-15T12:31:01.506Z,42.16
2024-02-15T12:33:28.777Z,42.01
2024-02-15T12:36:08.946Z,41.75
2024-02-15T12:38:38.603Z,40.79
2024-02-15T12:41:21.381Z,40.58
2024-02-15T12:43:53.386Z,40.46
2024-02-15T12:46:20.841Z,40.44
2024-02-15T12:48:47.769Z,40.10
2024-02-15T12:51:17.827Z,40.22
2024-02-15T12:53:44.862Z,41.05
2024-02-15T12:56:11.638Z,41.02
2024-02-15T12:58:40.275Z,41.06
2024-02-15T13:01:07.323Z,41.23
2024-02-15T13:03:34.428Z,41.26
2024-02-15T13:06:01.255Z,41.70
2024-02-15T13:08:27.848Z,41.84
2024-02-15T13:10:54.460Z,41.84
2024-02-15T13:13:22.401Z,41.05
2024-02-15T13:15:52.922Z,41.02
2024-02-15T13:18:20.123Z,41.01
2024-02-15T13:20:50.871Z,41.24
2024-02-15T13:23:23.394Z,41.33
2024-02-15T13:25:51.347Z,42.06
2024-02-15T13:28:18.181Z,42.29
2024-02-15T13:30:46.711Z,43.06
2024-02-15T13:33:15.972Z,42.82
2024-02-15T13:35:43.198Z,42.37
2024-02-15T13:38:16.459Z,42.83
2024-02-15T13:40:45.498Z,43.21
2024-02-15T13:43:12.348Z,43.14
2024-02-15T13:45:42.740Z,42.85
2024-02-15T13:48:11.030Z,43.05
2024-02-15T13:50:38.646Z,42.71
2024-02-15T13:53:06.007Z,42.73
2024-02-15T13:55:32.590Z,43.66
2024-02-15T13:57:59.557Z,43.03
2024-02-15T14:00:38.493Z,42.75
2024-02-15T14:03:07.874Z,43.15
2024-02-15T14:05:34.974Z,42.82
2024-02-15T14:08:15.084Z,42.44
2024-02-15T14:10:42.018Z,42.25
2024-02-15T14:13:12.702Z,42.42
2024-02-15T14:15:40.889Z,42.80
2024-02-15T14:18:14.841Z,43.32
2024-02-15T14:20:45.071Z,44.21
2024-02-15T14:23:15.550Z,43.87
2024-02-15T14:25:43.841Z,44.10
2024-02-15T14:28:10.559Z,43.60
2024-02-15T14:30:56.259Z,43.71
2024-02-15T14:33:23.998Z,43.57
2024-02-15T14:35:54.839Z,44.79
2024-02-15T14:38:22.081Z,44.18
2024-02-15T14:40:54.527Z,43.96
2024-02-15T14:43:22.903Z,44.30
2024-02-15T14:45:50.017Z,44.44
2024-02-15T14:48:19.818Z,44.40
2024-02-15T14:50:47.584Z,44.80
2024-02-15T14:53:16.934Z,44.93
2024-02-15T14:55:47.378Z,45.19
2024-02-15T14:58:14.893Z,45.79
2024-02-15T15:00:46.129Z,46.02
2024-02-15T15:03:14.733Z,45.83
2024-02-15T15:06:00.994Z,46.20
2024-02-15T15:08:46.214Z,46.82
2024-02-15T15:11:31.250Z,46.60
2024-02-15T15:13:57.928Z,46.75
2024-02-15T15:16:26.490Z,46.94
2024-02-15T15:18:56.289Z,47.60
2024-02-15T15:21:24.564Z,48.19
2024-02-15T15:23:51.584Z,47.77
2024-02-15T15:26:22.476Z,47.68
2024-02-15T15:28:49.755Z,47.76
2024-02-15T15:31:16.836Z,47.83
2024-02-15T15:33:44.380Z,48.17
2024-02-15T15:36:12.298Z,48.47
2024-02-15T15:38:39.269Z,48.65
2024-02-15T15:41:08.372Z,47.73
2024-02-15T15:43:34.950Z,48.03
2024-02-15T15:46:01.486Z,48.99
2024-02-15T15:48:28.171Z,48.33
2024-02-15T15:50:55.132Z,48.77
2024-02-15T15:53:22.159Z,49.02
2024-02-15T15:55:48.872Z,48.97
2024-02-15T15:58:16.234Z,48.99
2024-02-15T16:00:42.837Z,48.74
2024-02-15T16:03:10.095Z,49.14
2024-02-15T16:05:37.428Z,49.15
2024-02-15T16:08:04.470Z,48.94
2024-02-15T16:10:31.305Z,49.41
2024-02-15T16:12:58.618Z,49.65
2024-02-15T16:15:25.527Z,50.74
2024-02-15T16:17:52.424Z,50.20
2024-02-15T16:20:19.351Z,49.49
2024-02-15T16:22:46.644Z,50.09
2024-02-15T16:25:13.433Z,50.63
2024-02-15T16:27:41.507Z,50.88
2024-02-15T16:30:10.522Z,51.63
2024-02-15T16:32:41.217Z,52.56
2024-02-15T16:35:15.966Z,52.31
2024-02-15T16:37:43.947Z,52.10
2024-02-15T16:40:13.886Z,52.59
2024-02-15T16:42:46.020Z,51.91
2024-02-15T16:45:16.119Z,52.50
2024-02-15T16:47:50.980Z,52.16
2024-02-15T16:50:18.236Z,52.32
2024-02-15T16:52:44.987Z,52.54
2024-02-15T16:55:11.756Z,52.79
2024-02-15T16:57:42.205Z,53.61
2024-02-15T17:00:09.912Z,53.84
2024-02-15T17:02:39.983Z,53.42
2024-02-15T17:05:08.844Z,53.45
2024-02-15T17:07:36.069Z,54.49
2024-02-15T17:10:02.720Z,55.15
2024-02-15T17:12:29.855Z,55.07
2024-02-15T17:14:56.796Z,55.13
2024-02-15T17:17:23.703Z,54.89
2024-02-15T17:19:52.547Z,54.97
2024-02-15T17:22:19.784Z,55.31
2024-02-15T17:24:46.632Z,56.42
2024-02-15T17:27:13.417Z,56.11
2024-02-15T17:29:41.222Z,56.16
2024-02-15T17:32:08.117Z,55.43
2024-02-15T17:34:35.062Z,56.67
2024-02-15T17:37:01.979Z,55.88
2024-02-15T17:39:28.611Z,55.45
2024-02-15T17:41:55.252Z,55.10
2024-02-15T17:44:21.949Z,55.64
2024-02-15T17:46:48.574Z,55.99
2024-02-15T17:49:15.340Z,55.06
2024-02-15T17:51:44.625Z,55.89
2024-02-15T17:54:12.121Z,55.13
2024-02-15T17:56:41.494Z,55.63
2024-02-15T17:59:12.370Z,55.71
2024-02-15T18:01:40.550Z,55.68
2024-02-15T18:04:07.686Z,56.10
2024-02-15T18:06:34.732Z,56.57
2024-02-15T18:09:01.774Z,56.10
2024-02-15T18:11:28.713Z,56.30
2024-02-15T18:13:56.445Z,56.51
2024-02-15T18:16:23.089Z,55.96
2024-02-15T18:18:50.573Z,56.20
2024-02-15T18:21:17.857Z,56.72
2024-02-15T18:23:46.217Z,56.46
2024-02-15T18:26:13.195Z,56.59
2024-02-15T18:28:40.093Z,57.09
2024-02-15T18:31:09.931Z,56.66
2024-02-15T18:33:40.941Z,57.04
2024-02-15T18:36:10.017Z,57.01
2024-02-15T18:38:37.508Z,57.48
2024-02-15T18:41:07.088Z,57.05
2024-02-15T18:43:35.555Z,57.57
2024-02-15T18:46:03.014Z,57.03
2024-02-15T18:48:33.020Z,56.73
2024-02-15T18:50:59.938Z,56.79
2024-02-15T18:53:33.701Z,56.96
2024-02-15T18:56:00.319Z,56.86
2024-02-15T18:58:28.987Z,56.80
2024-02-15T19:00:58.978Z,56.90
2024-02-15T19:03:26.499Z,57.22
2024-02-15T19:05:53.516Z,57.68
2024-02-15T19:08:20.638Z,57.65
2024-02-15T19:10:47.720Z,57.68
2024-02-15T19:13:15.004Z,57.56
2024-02-15T19:15:41.809Z,57.64
2024-02-15T19:18:09.916Z,57.60
2024-02-15T19:20:36.838Z,57.74
2024-02-15T19:23:07.105Z,57.88
2024-02-15T19:25:45.677Z,58.13
2024-02-15T19:28:13.777Z,58.39
2024-02-15T19:30:43.160Z,58.94
2024-02-15T19:33:15.381Z,58.82
2024-02-15T19:35:47.331Z,59.01
2024-02-15T19:38:15.100Z,59.20
2024-02-15T19:40:43.393Z,59.69
2024-02-15T19:43:10.120Z,59.26
2024-02-15T19:45:42.686Z,59.19
2024-02-15T19:48:13.976Z,59.72
2024-02-15T19:50:40.863Z,59.79
2024-02-15T19:53:09.098Z,59.84
2024-02-15T19:55:35.764Z,60.42
2024-02-15T19:58:02.402Z,60.95
2024-02-15T20:00:30.589Z,61.10
2024-02-15T20:02:57.605Z,61.10
2024-02-15T20:05:28.011Z,61.17
2024-02-15T20:07:55.093Z,61.51
2024-02-15T20:10:21.701Z,61.61
2024-02-15T20:12:48.241Z,61.70
2024-02-15T20:15:14.844Z,62.30
2024-02-15T20:17:41.521Z,62.11
2024-02-15T20:20:11.318Z,61.46
2024-02-15T20:22:40.432Z,61.53
2024-02-15T20:25:11.132Z,61.49
2024-02-15T20:27:38.566Z,61.85
2024-02-15T20:30:06.657Z,61.38
2024-02-15T20:32:33.351Z,60.99
2024-02-15T20:35:00.339Z,61.12
2024-02-15T20:37:27.112Z,61.23
2024-02-15T20:39:54.783Z,61.15
2024-02-15T20:42:21.510Z,60.35
2024-02-15T20:44:48.149Z,60.43
2024-02-15T20:47:15.424Z,60.61
2024-02-15T20:49:42.119Z,61.04
2024-02-15T20:52:09.439Z,60.83
2024-02-15T20:54:36.126Z,60.82
2024-02-15T20:57:02.800Z,60.66
2024-02-15T20:59:29.498Z,60.58
2024-02-15T21:01:56.145Z,60.14
2024-02-15T21:04:23.046Z,60.11
2024-02-15T21:06:50.531Z,60.03
2024-02-15T21:09:17.598Z,60.05
2024-02-15T21:11:44.994Z,60.36
2024-02-15T21:14:14.440Z,59.85
2024-02-15T21:16:41.278Z,60.06
2024-02-15T21:19:10.788Z,60.12
2024-02-15T21:21:38.082Z,59.98
2024-02-15T21:24:06.353Z,60.02
2024-02-15T21:26:33.772Z,59.67
2024-02-15T21:29:00.577Z,59.33
2024-02-15T21:31:27.123Z,59.76
2024-02-15T21:33:55.435Z,59.35
2024-02-15T21:36:22.738Z,59.41
2024-02-15T21:38:51.576Z,59.45
2024-02-15T21:41:22.521Z,59.71
2024-02-15T21:43:52.144Z,60.01
2024-02-15T21:46:21.122Z,59.91
2024-02-15T21:48:49.149Z,59.92
2024-02-15T21:51:15.822Z,59.57
2024-02-15T21:53:42.319Z,59.63
2024-02-15T21:56:08.812Z,59.59
2024-02-15T21:58:35.322Z,59.60
2024-02-15T22:01:01.935Z,59.46
2024-02-15T22:03:28.726Z,59.52
2024-02-15T22:05:55.413Z,59.26
2024-02-15T22:08:22.056Z,59.04
2024-02-15T22:10:50.539Z,59.77
2024-02-15T22:13:19.089Z,59.57
2024-02-15T22:15:46.159Z,58.85
2024-02-15T22:18:13.908Z,59.19
2024-02-15T22:20:41.149Z,59.44
2024-02-15T22:23:07.729Z,59.22
2024-02-15T22:25:34.404Z,59.75
2024-02-15T22:28:00.942Z,59.32
2024-02-15T22:30:27.799Z,59.45
2024-02-15T22:32:56.915Z,59.44
2024-02-15T22:35:24.853Z,59.45
2024-02-15T22:37:51.465Z,60.16
2024-02-15T22:40:24.311Z,59.92
2024-02-15T22:42:50.870Z,59.95
2024-02-15T22:45:18.529Z,59.92
2024-02-15T22:47:46.427Z,59.75
2024-02-15T22:50:13.516Z,59.90
2024-02-15T22:52:40.557Z,59.88
2024-02-15T22:55:13.160Z,59.58
2024-02-15T22:57:39.831Z,59.82
2024-02-15T23:00:07.640Z,59.54
2024-02-15T23:02:36.292Z,59.71
2024-02-15T23:05:03.373Z,59.71
2024-02-15T23:07:30.230Z,59.76
2024-02-15T23:09:56.895Z,60.05
2024-02-15T23:12:23.714Z,59.73
2024-02-15T23:14:50.501Z,59.88
2024-02-15T23:17:17.071Z,59.92
2024-02-15T23:19:43.744Z,60.09
2024-02-15T23:22:11.341Z,60.13
2024-02-15T23:24:38.750Z,60.44
2024-02-15T23:27:06.761Z,60.46
2024-02-15T23:29:33.595Z,59.87
2024-02-15T23:32:00.313Z,59.67
2024-02-15T23:34:26.983Z,59.31
2024-02-15T23:37:11.889Z,59.62
2024-02-15T23:39:56.840Z,59.95
2024-02-15T23:42:23.588Z,59.53
2024-02-15T23:44:50.351Z,59.34
2024-02-15T23:47:16.960Z,59.23
2024-02-15T23:49:43.689Z,58.98
2024-02-15T23:52:10.331Z,59.28
2024-02-15T23:54:38.044Z,58.51
2024-02-15T23:57:06.530Z,59.12
2024-02-15T23:59:34.596Z,59.34
